Terminal Aerodrome Forecast
Issued by NWS

Home | Current Version | Previous Version | Text Only | Print | Product List | Glossary On
Versions: 1 2 3 4 5 6 7 8 9 10 11 12 13 14 15 16 17 18 19
000
FTAK31 PAJN 070500
TAFAYA
TAF
PAYA 070522Z 0706/0806 VRB04KT P6SM SCT050 OVC100
     FM071300 11008KT P6SM VCSH FEW010 SCT025 OVC050
     FM071600 11010G16KT 6SM -RA SCT020 OVC030
     FM071900 13010G18KT 4SM -RA BR BKN015 OVC025
     FM080100 13009KT 5SM -RA BR OVC015
      AMD LTD TO CLD VIS AND WIND 0706/0710=

USA.gov is the U.S. government's official web portal to all federal, state and local government web resources and services.